createdAt,value
2017-06-27T00:01:20.597Z,11.40
2017-06-27T00:03:47.550Z,11.30
2017-06-27T00:06:14.857Z,11.30
2017-06-27T00:08:41.821Z,11.20
2017-06-27T00:11:08.803Z,11.20
2017-06-27T00:13:35.807Z,11.20
2017-06-27T00:16:02.767Z,11.20
2017-06-27T00:18:29.727Z,11.00
2017-06-27T00:20:56.743Z,10.90
2017-06-27T00:23:23.728Z,11.20
2017-06-27T00:25:51.477Z,11.00
2017-06-27T00:28:18.420Z,11.00
2017-06-27T00:30:46.384Z,10.90
2017-06-27T00:33:13.347Z,10.90
2017-06-27T00:35:41.116Z,10.70
2017-06-27T00:38:08.849Z,10.80
2017-06-27T00:40:35.827Z,10.80
2017-06-27T00:43:03.592Z,10.60
2017-06-27T00:45:30.555Z,10.60
2017-06-27T00:47:57.543Z,10.70
2017-06-27T00:50:24.507Z,10.60
2017-06-27T00:52:51.492Z,10.50
2017-06-27T00:55:18.446Z,10.50
2017-06-27T00:57:45.414Z,10.50
2017-06-27T01:00:12.353Z,10.40
2017-06-27T01:02:39.345Z,10.50
2017-06-27T01:05:07.045Z,10.60
2017-06-27T01:07:33.989Z,10.60
2017-06-27T01:10:00.967Z,10.50
2017-06-27T01:12:27.945Z,10.50
2017-06-27T01:14:55.655Z,10.40
2017-06-27T01:17:22.647Z,10.30
2017-06-27T01:19:49.599Z,10.30
2017-06-27T01:22:17.313Z,10.40
2017-06-27T01:24:44.282Z,10.40
2017-06-27T01:27:11.217Z,10.40
2017-06-27T01:29:38.187Z,10.40
2017-06-27T01:32:05.920Z,10.30
2017-06-27T01:34:32.915Z,10.30
2017-06-27T01:36:59.875Z,10.40
2017-06-27T01:39:26.872Z,10.40
2017-06-27T01:41:53.834Z,10.40
2017-06-27T01:44:20.816Z,10.60
2017-06-27T01:46:47.795Z,10.80
2017-06-27T01:49:14.748Z,11.00
2017-06-27T01:51:41.780Z,11.10
2017-06-27T01:54:08.795Z,11.20
2017-06-27T01:56:35.768Z,11.20
2017-06-27T01:59:02.732Z,11.50
2017-06-27T02:01:29.676Z,11.40
2017-06-27T02:03:56.664Z,11.50
2017-06-27T02:06:23.623Z,11.40
2017-06-27T02:08:50.623Z,11.40
2017-06-27T02:11:17.591Z,11.40
2017-06-27T02:13:45.356Z,11.50
2017-06-27T02:16:13.080Z,11.50
2017-06-27T02:18:40.064Z,11.50
2017-06-27T02:21:07.812Z,11.50
2017-06-27T02:23:34.772Z,11.50
2017-06-27T02:26:01.753Z,11.60
2017-06-27T02:28:28.692Z,11.50
2017-06-27T02:30:55.681Z,11.40
2017-06-27T02:33:22.621Z,11.50
2017-06-27T02:35:49.564Z,11.70
2017-06-27T02:38:16.539Z,11.80
2017-06-27T02:40:44.287Z,11.90
2017-06-27T02:43:11.275Z,11.90
2017-06-27T02:45:38.240Z,11.80
2017-06-27T02:48:05.246Z,11.60
2017-06-27T02:50:32.968Z,11.30
2017-06-27T02:52:59.951Z,11.30
2017-06-27T02:55:27.682Z,11.10
2017-06-27T02:57:54.632Z,11.10
2017-06-27T03:00:21.592Z,11.10
2017-06-27T03:02:48.537Z,11.10
2017-06-27T03:05:15.514Z,11.10
2017-06-27T03:07:42.493Z,11.00
2017-06-27T03:10:09.632Z,11.10
2017-06-27T03:12:36.595Z,11.10
2017-06-27T03:15:03.552Z,11.20
2017-06-27T03:17:30.536Z,11.20
2017-06-27T03:19:57.489Z,11.10
2017-06-27T03:22:24.469Z,11.10
2017-06-27T03:24:51.404Z,11.00
2017-06-27T03:27:18.385Z,11.00
2017-06-27T03:29:45.345Z,11.10
2017-06-27T03:32:13.053Z,11.40
2017-06-27T03:34:40.013Z,11.40
2017-06-27T03:37:06.945Z,11.30
2017-06-27T03:39:33.908Z,11.30
2017-06-27T03:42:00.853Z,11.20
2017-06-27T03:44:27.825Z,11.30
2017-06-27T03:46:54.757Z,11.20
2017-06-27T03:49:22.091Z,11.20
2017-06-27T03:51:49.044Z,11.20
2017-06-27T03:54:15.988Z,11.10
2017-06-27T03:56:42.959Z,11.10
2017-06-27T03:59:10.676Z,11.30
2017-06-27T04:01:37.672Z,11.30
2017-06-27T04:04:05.400Z,11.40
2017-06-27T04:06:32.384Z,11.40
2017-06-27T04:09:00.118Z,11.60
2017-06-27T04:11:27.062Z,11.60
2017-06-27T04:13:54.056Z,11.50
2017-06-27T04:16:21.012Z,11.50
2017-06-27T04:18:47.976Z,11.50
2017-06-27T04:21:15.018Z,11.60
2017-06-27T04:23:41.975Z,11.70
2017-06-27T04:26:08.960Z,11.80
2017-06-27T04:28:36.672Z,12.10
2017-06-27T04:31:03.657Z,12.10
2017-06-27T04:33:30.597Z,12.10
2017-06-27T04:35:57.532Z,12.30
2017-06-27T04:38:24.507Z,12.20
2017-06-27T04:40:52.239Z,12.50
2017-06-27T04:43:19.199Z,12.40
2017-06-27T04:45:46.137Z,12.50
2017-06-27T04:48:13.122Z,12.50
2017-06-27T04:50:40.069Z,12.70
2017-06-27T04:53:07.059Z,12.70
2017-06-27T04:55:34.011Z,12.80
2017-06-27T04:58:00.989Z,13.00
2017-06-27T05:00:28.693Z,12.80
2017-06-27T05:02:55.672Z,12.80
2017-06-27T05:05:22.629Z,12.60
2017-06-27T05:07:49.588Z,13.00
2017-06-27T05:10:17.289Z,13.20
2017-06-27T05:12:44.251Z,13.20
2017-06-27T05:15:11.236Z,13.50
2017-06-27T05:17:38.955Z,13.30
2017-06-27T05:20:05.931Z,13.30
2017-06-27T05:22:32.892Z,13.40
2017-06-27T05:25:00.645Z,13.30
2017-06-27T05:27:27.600Z,13.30
2017-06-27T05:29:54.587Z,13.40
2017-06-27T05:32:21.547Z,13.20
2017-06-27T05:34:48.501Z,13.40
2017-06-27T05:37:15.500Z,13.60
2017-06-27T05:39:42.446Z,13.80
2017-06-27T05:42:09.428Z,13.90
2017-06-27T05:44:36.390Z,13.70
2017-06-27T05:47:03.528Z,13.70
2017-06-27T05:49:30.483Z,13.90
2017-06-27T05:51:57.445Z,13.80
2017-06-27T05:54:25.191Z,14.00
2017-06-27T05:56:52.140Z,14.00
2017-06-27T05:59:19.132Z,14.20
2017-06-27T06:01:46.079Z,14.20
2017-06-27T06:04:13.055Z,14.30
2017-06-27T06:06:40.044Z,14.20
2017-06-27T06:09:07.769Z,14.40
2017-06-27T06:11:34.701Z,14.40
2017-06-27T06:14:01.676Z,14.40
2017-06-27T06:16:28.639Z,14.40
2017-06-27T06:18:56.387Z,14.70
2017-06-27T06:21:23.340Z,14.70
2017-06-27T06:23:50.336Z,14.90
2017-06-27T06:26:17.311Z,14.90
2017-06-27T06:28:44.252Z,15.10
2017-06-27T06:31:11.256Z,15.20
2017-06-27T06:33:38.208Z,15.30
2017-06-27T06:36:05.210Z,15.60
2017-06-27T06:38:32.164Z,15.50
2017-06-27T06:40:59.896Z,15.90
2017-06-27T06:43:26.872Z,15.80
2017-06-27T06:45:54.583Z,15.70
2017-06-27T06:48:21.563Z,15.70
2017-06-27T06:50:48.518Z,15.80
2017-06-27T06:53:15.473Z,15.80
2017-06-27T06:55:43.200Z,16.00
2017-06-27T06:58:10.157Z,15.90
2017-06-27T07:00:37.136Z,16.10
2017-06-27T07:03:04.851Z,15.90
2017-06-27T07:05:31.831Z,15.80
2017-06-27T07:07:58.783Z,15.80
2017-06-27T07:10:28.577Z,15.90
2017-06-27T07:12:55.532Z,15.90
2017-06-27T07:15:22.489Z,16.20
2017-06-27T07:17:50.208Z,16.40
2017-06-27T07:20:17.182Z,16.40
2017-06-27T07:22:44.153Z,16.30
2017-06-27T07:25:11.145Z,16.10
2017-06-27T07:27:38.080Z,16.70
2017-06-27T07:30:05.540Z,16.80
2017-06-27T07:32:32.498Z,16.90
2017-06-27T07:34:59.451Z,17.00
2017-06-27T07:37:26.426Z,16.90
2017-06-27T07:39:54.140Z,16.00
2017-06-27T07:42:21.134Z,16.00
2017-06-27T07:44:48.859Z,16.60
2017-06-27T07:47:15.842Z,16.60
2017-06-27T07:49:43.564Z,16.60
2017-06-27T07:52:10.560Z,16.60
2017-06-27T07:54:37.516Z,16.70
2017-06-27T07:57:04.524Z,16.60
2017-06-27T07:59:32.247Z,15.90
2017-06-27T08:01:59.191Z,15.90
2017-06-27T08:04:26.176Z,15.60
2017-06-27T08:06:53.135Z,15.70
2017-06-27T08:09:20.093Z,16.00
2017-06-27T08:11:47.074Z,16.50
2017-06-27T08:14:14.052Z,16.60
2017-06-27T08:16:41.007Z,16.70
2017-06-27T08:19:07.988Z,16.90
2017-06-27T08:21:34.942Z,16.90
2017-06-27T08:24:01.920Z,17.00
2017-06-27T08:26:28.861Z,16.80
2017-06-27T08:28:55.855Z,16.90
2017-06-27T08:31:22.807Z,17.30
2017-06-27T08:33:49.760Z,17.20
2017-06-27T08:36:16.736Z,17.30
2017-06-27T08:38:43.689Z,17.50
2017-06-27T08:41:10.811Z,17.90
2017-06-27T08:43:37.758Z,17.10
2017-06-27T08:46:04.727Z,17.50
2017-06-27T08:48:31.777Z,17.70
2017-06-27T08:50:58.718Z,17.80
2017-06-27T08:53:25.686Z,17.60
2017-06-27T08:55:52.644Z,17.40
2017-06-27T08:58:20.369Z,16.80
2017-06-27T09:00:47.304Z,16.80
2017-06-27T09:03:14.260Z,16.70
2017-06-27T09:05:41.203Z,16.70
2017-06-27T09:08:08.208Z,17.20
2017-06-27T09:10:35.141Z,17.50
2017-06-27T09:13:02.855Z,17.70
2017-06-27T09:15:29.820Z,17.70
2017-06-27T09:17:56.761Z,17.80
2017-06-27T09:20:23.764Z,18.00
2017-06-27T09:22:50.712Z,18.00
2017-06-27T09:25:17.688Z,17.90
2017-06-27T09:27:44.644Z,17.70
2017-06-27T09:30:11.633Z,17.90
2017-06-27T09:32:38.589Z,17.50
2017-06-27T09:35:05.530Z,17.50
2017-06-27T09:37:33.095Z,17.40
2017-06-27T09:40:00.041Z,17.10
2017-06-27T09:42:27.015Z,17.40
2017-06-27T09:44:53.988Z,18.00
2017-06-27T09:47:21.928Z,18.20
2017-06-27T09:49:48.872Z,18.20
2017-06-27T09:52:15.833Z,18.30
2017-06-27T09:54:43.590Z,19.10
2017-06-27T09:57:10.543Z,19.10
2017-06-27T09:59:37.517Z,19.10
2017-06-27T10:02:04.472Z,19.00
2017-06-27T10:04:31.466Z,18.90
2017-06-27T10:06:58.481Z,18.60
2017-06-27T10:09:25.436Z,18.40
2017-06-27T10:11:52.408Z,18.50
2017-06-27T10:14:20.129Z,18.90
2017-06-27T10:16:47.081Z,18.80
2017-06-27T10:19:14.040Z,18.90
2017-06-27T10:21:41.034Z,18.70
2017-06-27T10:24:08.756Z,18.10
2017-06-27T10:26:35.728Z,18.10
2017-06-27T10:29:03.441Z,18.10
2017-06-27T10:31:30.431Z,18.10
2017-06-27T10:33:57.399Z,17.80
2017-06-27T10:36:25.121Z,18.10
2017-06-27T10:38:52.101Z,18.10
2017-06-27T10:41:19.831Z,18.20
2017-06-27T10:43:46.804Z,18.10
2017-06-27T10:46:13.793Z,18.40
2017-06-27T10:48:40.734Z,18.20
2017-06-27T10:51:07.708Z,18.50
2017-06-27T10:53:34.660Z,18.40
2017-06-27T10:56:01.641Z,18.60
2017-06-27T10:58:28.585Z,19.00
2017-06-27T11:00:56.329Z,19.40
2017-06-27T11:03:24.076Z,19.50
2017-06-27T11:05:51.032Z,19.50
2017-06-27T11:08:18.770Z,19.60
2017-06-27T11:10:45.744Z,19.60
2017-06-27T11:13:12.696Z,19.60
2017-06-27T11:15:40.451Z,19.90
2017-06-27T11:18:07.409Z,19.90
2017-06-27T11:20:35.185Z,20.00
2017-06-27T11:23:02.390Z,20.00
2017-06-27T11:25:29.353Z,20.10
2017-06-27T11:27:56.327Z,19.90
2017-06-27T11:30:23.288Z,19.70
2017-06-27T11:32:50.264Z,19.10
2017-06-27T11:35:17.222Z,19.10
2017-06-27T11:37:44.217Z,18.90
2017-06-27T11:40:11.171Z,19.30
2017-06-27T11:42:38.152Z,19.50
2017-06-27T11:45:05.089Z,20.00
2017-06-27T11:47:32.059Z,20.20
2017-06-27T11:49:59.035Z,19.70
2017-06-27T11:52:25.982Z,19.90
2017-06-27T11:54:52.956Z,19.90
2017-06-27T11:57:19.908Z,19.90
2017-06-27T11:59:46.896Z,19.70
2017-06-27T12:02:14.632Z,20.10
2017-06-27T12:04:41.616Z,20.10
2017-06-27T12:07:30.167Z,20.90
2017-06-27T12:09:57.907Z,21.50
2017-06-27T12:12:24.864Z,21.50
2017-06-27T12:14:52.789Z,20.10
2017-06-27T12:17:19.747Z,20.00
2017-06-27T12:19:46.682Z,19.80
2017-06-27T12:22:13.654Z,19.70
2017-06-27T12:24:40.612Z,20.00
2017-06-27T12:27:08.362Z,21.20
2017-06-27T12:29:35.313Z,21.20
2017-06-27T12:32:03.033Z,21.70
2017-06-27T12:34:29.970Z,21.60
2017-06-27T12:36:56.949Z,21.20
2017-06-27T12:39:23.915Z,20.80
2017-06-27T12:41:51.731Z,22.00
2017-06-27T12:44:18.688Z,22.00
2017-06-27T12:46:45.688Z,21.90
2017-06-27T12:49:13.434Z,21.90
2017-06-27T12:51:40.378Z,21.90
2017-06-27T12:54:08.324Z,21.80
2017-06-27T12:56:35.323Z,21.80
2017-06-27T12:59:02.272Z,22.20
2017-06-27T13:01:29.339Z,21.60
2017-06-27T13:03:56.310Z,21.90
2017-06-27T13:06:23.298Z,22.00
2017-06-27T13:08:50.252Z,22.00
2017-06-27T13:11:17.259Z,22.30
2017-06-27T13:13:44.209Z,22.70
2017-06-27T13:16:11.165Z,22.70
2017-06-27T13:18:38.171Z,21.60
2017-06-27T13:21:05.109Z,20.80
2017-06-27T13:23:32.080Z,20.00
2017-06-27T13:25:59.039Z,19.60
2017-06-27T13:28:26.799Z,19.60
2017-06-27T13:30:54.504Z,20.80
2017-06-27T13:33:21.470Z,20.80
2017-06-27T13:35:48.449Z,20.70
2017-06-27T13:38:15.398Z,20.50
2017-06-27T13:40:42.381Z,20.10
2017-06-27T13:43:09.337Z,20.10
2017-06-27T13:45:36.317Z,20.60
2017-06-27T13:48:03.264Z,20.70
2017-06-27T13:50:30.220Z,21.10
2017-06-27T13:52:57.200Z,21.10
2017-06-27T13:55:24.141Z,21.10
2017-06-27T13:57:51.094Z,20.50
2017-06-27T14:00:18.043Z,20.60
2017-06-27T14:02:45.032Z,20.40
2017-06-27T14:05:12.222Z,20.40
2017-06-27T14:07:39.976Z,20.40
2017-06-27T14:10:07.696Z,20.30
2017-06-27T14:12:34.657Z,20.30
2017-06-27T14:15:01.643Z,20.30
2017-06-27T14:17:28.604Z,24.40
2017-06-27T14:19:55.580Z,26.80
2017-06-27T14:22:22.531Z,25.30
2017-06-27T14:24:49.511Z,27.10
2017-06-27T14:27:16.464Z,27.50
2017-06-27T14:29:43.467Z,27.50
2017-06-27T14:32:10.419Z,28.40
2017-06-27T14:34:37.383Z,28.70
2017-06-27T14:37:05.196Z,29.70
2017-06-27T14:39:32.151Z,29.60
2017-06-27T14:41:59.123Z,29.50
2017-06-27T14:44:26.080Z,29.30
2017-06-27T14:46:53.808Z,28.30
2017-06-27T14:49:20.761Z,28.30
2017-06-27T14:51:47.701Z,28.30
2017-06-27T14:54:14.655Z,28.30
2017-06-27T14:56:41.652Z,27.80
2017-06-27T14:59:08.599Z,27.70
2017-06-27T15:01:35.568Z,27.20
2017-06-27T15:04:02.530Z,26.80
2017-06-27T15:06:29.532Z,25.80
2017-06-27T15:08:56.496Z,25.50
2017-06-27T15:11:23.438Z,25.10
2017-06-27T15:13:50.416Z,25.60
2017-06-27T15:16:17.436Z,26.20
2017-06-27T15:18:44.428Z,27.70
2017-06-27T15:21:12.150Z,28.20
2017-06-27T15:23:39.107Z,28.20
2017-06-27T15:26:06.095Z,27.90
2017-06-27T15:28:33.063Z,28.40
2017-06-27T15:31:00.048Z,27.80
2017-06-27T15:33:27.083Z,28.20
2017-06-27T15:35:54.089Z,27.30
2017-06-27T15:38:21.049Z,27.00
2017-06-27T15:40:47.999Z,27.10
2017-06-27T15:43:14.988Z,26.20
2017-06-27T15:45:41.946Z,26.20
2017-06-27T15:48:09.668Z,27.30
2017-06-27T15:50:36.658Z,27.30
2017-06-27T15:53:03.960Z,26.90
2017-06-27T15:55:30.930Z,26.20
2017-06-27T15:57:57.910Z,27.40
2017-06-27T16:00:24.857Z,27.80
2017-06-27T16:02:51.840Z,27.00
2017-06-27T16:05:18.798Z,27.40
2017-06-27T16:07:45.780Z,27.00
2017-06-27T16:10:13.500Z,26.30
2017-06-27T16:12:40.530Z,26.30
2017-06-27T16:15:07.474Z,26.80
2017-06-27T16:17:34.464Z,25.90
2017-06-27T16:20:01.418Z,25.80
2017-06-27T16:22:28.404Z,25.70
2017-06-27T16:24:55.358Z,25.60
2017-06-27T16:27:22.332Z,24.80
2017-06-27T16:29:49.288Z,23.70
2017-06-27T16:32:16.272Z,23.30
2017-06-27T16:34:43.236Z,23.60
2017-06-27T16:37:10.416Z,24.20
2017-06-27T16:39:37.373Z,23.90
2017-06-27T16:42:04.356Z,23.90
2017-06-27T16:44:32.123Z,23.70
2017-06-27T16:46:59.079Z,23.70
2017-06-27T16:49:26.040Z,23.70
2017-06-27T16:51:53.089Z,23.30
2017-06-27T16:54:20.044Z,23.10
2017-06-27T16:56:46.989Z,22.80
2017-06-27T16:59:13.953Z,22.60
2017-06-27T17:01:40.913Z,22.80
2017-06-27T17:04:07.909Z,22.20
2017-06-27T17:06:34.879Z,22.40
2017-06-27T17:09:01.835Z,22.30
2017-06-27T17:11:28.794Z,22.40
2017-06-27T17:13:55.748Z,22.10
2017-06-27T17:16:23.507Z,21.90
2017-06-27T17:18:51.214Z,22.30
2017-06-27T17:21:18.209Z,22.30
2017-06-27T17:23:45.144Z,21.70
2017-06-27T17:26:12.077Z,20.70
2017-06-27T17:28:39.039Z,20.20
2017-06-27T17:31:06.817Z,20.20
2017-06-27T17:33:34.547Z,20.70
2017-06-27T17:36:01.506Z,20.70
2017-06-27T17:38:28.484Z,20.50
2017-06-27T17:40:55.489Z,20.10
2017-06-27T17:43:22.834Z,19.60
2017-06-27T17:45:49.773Z,19.20
2017-06-27T17:48:16.735Z,19.10
2017-06-27T17:50:43.697Z,18.80
2017-06-27T17:53:10.660Z,18.50
2017-06-27T17:55:37.638Z,18.30
2017-06-27T17:58:04.601Z,18.10
2017-06-27T18:00:31.539Z,17.70
2017-06-27T18:02:58.523Z,17.60
2017-06-27T18:05:26.248Z,17.30
2017-06-27T18:07:53.289Z,17.40
2017-06-27T18:10:20.256Z,17.30
2017-06-27T18:12:47.227Z,17.10
2017-06-27T18:15:14.948Z,17.00
2017-06-27T18:17:41.943Z,17.00
2017-06-27T18:20:09.662Z,16.90
2017-06-27T18:22:36.596Z,16.80
2017-06-27T18:25:03.554Z,16.80
2017-06-27T18:27:30.500Z,16.70
2017-06-27T18:29:57.528Z,16.60
2017-06-27T18:32:24.499Z,16.40
2017-06-27T18:34:51.456Z,16.30
2017-06-27T18:37:18.403Z,16.20
2017-06-27T18:39:45.380Z,16.20
2017-06-27T18:42:12.320Z,16.30
2017-06-27T18:44:40.047Z,16.30
2017-06-27T18:47:06.994Z,16.30
2017-06-27T18:49:33.959Z,16.20
2017-06-27T18:52:01.670Z,16.10
2017-06-27T18:54:28.653Z,16.00
2017-06-27T18:56:55.612Z,16.00
2017-06-27T18:59:23.360Z,15.80
2017-06-27T19:01:50.325Z,15.80
2017-06-27T19:04:18.084Z,15.60
2017-06-27T19:06:45.808Z,15.60
2017-06-27T19:09:12.757Z,15.50
2017-06-27T19:11:39.741Z,15.50
2017-06-27T19:14:07.464Z,15.50
2017-06-27T19:16:34.495Z,15.40
2017-06-27T19:19:01.456Z,15.40
2017-06-27T19:21:28.444Z,15.40
2017-06-27T19:23:55.400Z,15.30
2017-06-27T19:26:22.404Z,15.30
2017-06-27T19:28:49.364Z,15.20
2017-06-27T19:31:16.320Z,15.20
2017-06-27T19:33:44.104Z,15.20
2017-06-27T19:36:11.069Z,15.20
2017-06-27T19:38:38.053Z,15.20
2017-06-27T19:41:04.990Z,15.10
2017-06-27T19:43:31.968Z,15.20
2017-06-27T19:45:59.673Z,15.20
2017-06-27T19:48:26.788Z,15.10
2017-06-27T19:50:53.749Z,15.20
2017-06-27T19:53:20.713Z,15.10
2017-06-27T19:55:47.693Z,15.10
2017-06-27T19:58:14.669Z,15.00
2017-06-27T20:00:41.637Z,15.10
2017-06-27T20:03:08.619Z,15.00
2017-06-27T20:05:35.593Z,15.00
2017-06-27T20:08:02.539Z,15.10
2017-06-27T20:10:30.320Z,15.00
2017-06-27T20:12:57.295Z,15.00
2017-06-27T20:15:24.237Z,14.90
2017-06-27T20:17:51.200Z,14.90
2017-06-27T20:20:18.152Z,15.00
2017-06-27T20:22:45.151Z,14.90
2017-06-27T20:25:12.093Z,14.90
2017-06-27T20:27:39.051Z,14.90
2017-06-27T20:30:06.110Z,14.90
2017-06-27T20:32:33.084Z,14.80
2017-06-27T20:35:00.024Z,14.80
2017-06-27T20:37:26.997Z,14.80
2017-06-27T20:39:54.723Z,14.70
2017-06-27T20:42:22.922Z,14.70
2017-06-27T20:44:49.879Z,14.70
2017-06-27T20:47:17.603Z,14.70
2017-06-27T20:49:44.577Z,14.60
2017-06-27T20:52:11.548Z,14.70
2017-06-27T20:54:38.585Z,14.70
2017-06-27T20:57:06.328Z,14.60
2017-06-27T20:59:33.309Z,14.60
2017-06-27T21:02:00.264Z,14.60
2017-06-27T21:04:27.252Z,14.70
2017-06-27T21:06:54.193Z,14.60
2017-06-27T21:09:21.157Z,14.60
2017-06-27T21:11:48.142Z,14.60
2017-06-27T21:14:15.211Z,14.70
2017-06-27T21:16:42.182Z,14.70
2017-06-27T21:19:09.142Z,14.60
2017-06-27T21:21:36.147Z,14.70
2017-06-27T21:24:03.113Z,14.60
2017-06-27T21:26:30.056Z,14.60
2017-06-27T21:28:57.054Z,14.50
2017-06-27T21:31:24.048Z,14.50
2017-06-27T21:33:50.981Z,14.40
2017-06-27T21:36:17.960Z,14.50
2017-06-27T21:38:44.901Z,14.50
2017-06-27T21:41:11.875Z,14.50
2017-06-27T21:43:38.933Z,14.60
2017-06-27T21:46:05.884Z,14.60
2017-06-27T21:48:32.853Z,14.60
2017-06-27T21:50:59.848Z,14.50
2017-06-27T21:53:27.576Z,14.50
2017-06-27T21:55:54.518Z,14.40
2017-06-27T21:58:21.496Z,14.40
2017-06-27T22:00:49.322Z,14.50
2017-06-27T22:03:16.267Z,14.50
2017-06-27T22:05:43.215Z,14.40
2017-06-27T22:08:10.217Z,14.30
2017-06-27T22:10:37.195Z,14.20
2017-06-27T22:13:04.147Z,14.20
2017-06-27T22:15:31.282Z,14.20
2017-06-27T22:17:58.256Z,14.20
2017-06-27T22:20:25.274Z,14.00
2017-06-27T22:22:52.231Z,14.00
2017-06-27T22:25:19.194Z,14.10
2017-06-27T22:27:46.143Z,14.00
2017-06-27T22:30:13.154Z,14.00
2017-06-27T22:32:40.117Z,13.90
2017-06-27T22:35:07.073Z,14.00
2017-06-27T22:37:34.025Z,14.00
2017-06-27T22:40:01.003Z,14.00
2017-06-27T22:42:27.954Z,14.10
2017-06-27T22:44:54.939Z,14.00
2017-06-27T22:47:21.887Z,14.00
2017-06-27T22:49:48.875Z,13.90
2017-06-27T22:52:15.809Z,14.00
2017-06-27T22:54:42.765Z,14.00
2017-06-27T22:57:10.467Z,14.10
2017-06-27T22:59:37.441Z,14.10
2017-06-27T23:02:04.392Z,14.20
2017-06-27T23:04:31.376Z,14.20
2017-06-27T23:06:58.342Z,14.20
2017-06-27T23:09:25.317Z,14.30
2017-06-27T23:11:52.307Z,14.20
2017-06-27T23:14:20.027Z,14.20
2017-06-27T23:16:46.980Z,14.20
2017-06-27T23:19:13.933Z,14.20
2017-06-27T23:21:40.928Z,14.20
2017-06-27T23:24:07.888Z,14.30
2017-06-27T23:26:34.840Z,14.30
2017-06-27T23:29:01.820Z,14.40
2017-06-27T23:31:28.772Z,14.40
2017-06-27T23:33:56.516Z,14.40
2017-06-27T23:36:23.453Z,14.40
2017-06-27T23:38:50.443Z,14.30
2017-06-27T23:41:17.395Z,14.30
2017-06-27T23:43:44.367Z,14.30
2017-06-27T23:46:11.328Z,14.30
2017-06-27T23:48:38.304Z,14.30
2017-06-27T23:51:06.031Z,14.40
2017-06-27T23:53:33.005Z,14.40
2017-06-27T23:55:59.961Z,14.40
2017-06-27T23:58:27.704Z,14.40
